sensor_id;sensor_type;location;lat;lon;timestamp;temperature;humidity
38263;DHT22;24054;50.128;19.730;2022-10-31T00:00:28;21.00;67.00
38263;DHT22;24054;50.128;19.730;2022-10-31T00:02:55;21.00;66.10
38263;DHT22;24054;50.128;19.730;2022-10-31T00:05:22;20.90;66.20
38263;DHT22;24054;50.128;19.730;2022-10-31T00:07:52;20.90;66.20
38263;DHT22;24054;50.128;19.730;2022-10-31T00:10:20;20.90;66.30
38263;DHT22;24054;50.128;19.730;2022-10-31T00:12:47;20.90;66.40
38263;DHT22;24054;50.128;19.730;2022-10-31T00:15:14;20.90;66.30
38263;DHT22;24054;50.128;19.730;2022-10-31T00:17:41;20.90;66.10
38263;DHT22;24054;50.128;19.730;2022-10-31T00:20:09;20.90;66.30
38263;DHT22;24054;50.128;19.730;2022-10-31T00:22:36;20.80;66.20
38263;DHT22;24054;50.128;19.730;2022-10-31T00:25:03;20.80;66.20
38263;DHT22;24054;50.128;19.730;2022-10-31T00:27:32;20.80;66.20
38263;DHT22;24054;50.128;19.730;2022-10-31T00:29:59;20.80;66.40
38263;DHT22;24054;50.128;19.730;2022-10-31T00:32:28;20.80;66.30
38263;DHT22;24054;50.128;19.730;2022-10-31T00:34:55;20.80;66.40
38263;DHT22;24054;50.128;19.730;2022-10-31T00:37:22;20.80;66.00
38263;DHT22;24054;50.128;19.730;2022-10-31T00:39:49;20.80;66.10
38263;DHT22;24054;50.128;19.730;2022-10-31T00:42:16;20.80;66.10
38263;DHT22;24054;50.128;19.730;2022-10-31T00:44:44;20.80;66.40
38263;DHT22;24054;50.128;19.730;2022-10-31T00:47:11;20.80;66.10
38263;DHT22;24054;50.128;19.730;2022-10-31T00:49:38;20.80;66.10
38263;DHT22;24054;50.128;19.730;2022-10-31T00:52:05;20.80;65.90
38263;DHT22;24054;50.128;19.730;2022-10-31T00:54:32;20.80;66.00
38263;DHT22;24054;50.128;19.730;2022-10-31T00:56:59;20.80;65.90
38263;DHT22;24054;50.128;19.730;2022-10-31T00:59:29;20.80;65.80
38263;DHT22;24054;50.128;19.730;2022-10-31T01:01:57;20.80;65.90
38263;DHT22;24054;50.128;19.730;2022-10-31T01:04:24;20.70;65.90
38263;DHT22;24054;50.128;19.730;2022-10-31T01:06:54;20.80;65.80
38263;DHT22;24054;50.128;19.730;2022-10-31T01:09:21;20.70;65.70
38263;DHT22;24054;50.128;19.730;2022-10-31T01:11:47;20.70;65.70
38263;DHT22;24054;50.128;19.730;2022-10-31T01:14:14;20.70;65.80
38263;DHT22;24054;50.128;19.730;2022-10-31T01:16:41;20.70;65.80
38263;DHT22;24054;50.128;19.730;2022-10-31T01:19:10;20.70;65.70
38263;DHT22;24054;50.128;19.730;2022-10-31T01:21:36;20.70;65.70
38263;DHT22;24054;50.128;19.730;2022-10-31T01:24:04;20.70;65.70
38263;DHT22;24054;50.128;19.730;2022-10-31T01:26:33;20.70;65.70
38263;DHT22;24054;50.128;19.730;2022-10-31T01:29:00;20.70;65.60
38263;DHT22;24054;50.128;19.730;2022-10-31T01:31:29;20.70;65.60
38263;DHT22;24054;50.128;19.730;2022-10-31T01:33:57;20.70;65.60
38263;DHT22;24054;50.128;19.730;2022-10-31T01:36:28;20.70;65.70
38263;DHT22;24054;50.128;19.730;2022-10-31T01:38:57;20.70;65.70
38263;DHT22;24054;50.128;19.730;2022-10-31T01:41:27;20.70;65.70
38263;DHT22;24054;50.128;19.730;2022-10-31T01:43:55;20.70;65.80
38263;DHT22;24054;50.128;19.730;2022-10-31T01:46:23;20.70;66.00
38263;DHT22;24054;50.128;19.730;2022-10-31T01:48:53;20.70;65.60
38263;DHT22;24054;50.128;19.730;2022-10-31T01:51:25;20.70;65.60
38263;DHT22;24054;50.128;19.730;2022-10-31T01:53:55;20.60;65.50
38263;DHT22;24054;50.128;19.730;2022-10-31T01:56:24;20.60;65.50
38263;DHT22;24054;50.128;19.730;2022-10-31T01:58:52;20.70;65.60
38263;DHT22;24054;50.128;19.730;2022-10-31T02:01:20;20.60;65.70
38263;DHT22;24054;50.128;19.730;2022-10-31T02:03:48;20.70;65.60
38263;DHT22;24054;50.128;19.730;2022-10-31T02:06:25;20.70;65.60
38263;DHT22;24054;50.128;19.730;2022-10-31T02:08:55;20.60;65.60
38263;DHT22;24054;50.128;19.730;2022-10-31T02:11:23;20.60;65.50
38263;DHT22;24054;50.128;19.730;2022-10-31T02:13:50;20.60;65.50
38263;DHT22;24054;50.128;19.730;2022-10-31T02:16:17;20.60;65.60
38263;DHT22;24054;50.128;19.730;2022-10-31T02:18:44;20.60;65.50
38263;DHT22;24054;50.128;19.730;2022-10-31T02:21:16;20.60;65.50
38263;DHT22;24054;50.128;19.730;2022-10-31T02:24:23;20.60;65.60
38263;DHT22;24054;50.128;19.730;2022-10-31T02:27:06;20.60;65.60
38263;DHT22;24054;50.128;19.730;2022-10-31T02:30:10;20.60;65.50
38263;DHT22;24054;50.128;19.730;2022-10-31T02:32:46;20.60;65.70
38263;DHT22;24054;50.128;19.730;2022-10-31T02:35:25;20.60;65.50
38263;DHT22;24054;50.128;19.730;2022-10-31T02:38:00;20.50;65.50
38263;DHT22;24054;50.128;19.730;2022-10-31T02:40:31;20.50;65.40
38263;DHT22;24054;50.128;19.730;2022-10-31T02:43:04;20.50;65.40
38263;DHT22;24054;50.128;19.730;2022-10-31T02:45:38;20.60;65.60
38263;DHT22;24054;50.128;19.730;2022-10-31T02:48:10;20.50;65.60
38263;DHT22;24054;50.128;19.730;2022-10-31T02:50:41;20.50;65.40
38263;DHT22;24054;50.128;19.730;2022-10-31T02:53:10;20.50;65.40
38263;DHT22;24054;50.128;19.730;2022-10-31T02:55:53;20.50;65.40
38263;DHT22;24054;50.128;19.730;2022-10-31T02:58:26;20.50;65.40
38263;DHT22;24054;50.128;19.730;2022-10-31T03:04:16;20.50;65.30
38263;DHT22;24054;50.128;19.730;2022-10-31T03:06:48;20.50;65.30
38263;DHT22;24054;50.128;19.730;2022-10-31T03:09:22;20.50;65.40
38263;DHT22;24054;50.128;19.730;2022-10-31T03:11:56;20.50;65.30
38263;DHT22;24054;50.128;19.730;2022-10-31T03:14:29;20.50;65.40
38263;DHT22;24054;50.128;19.730;2022-10-31T03:17:01;20.50;65.30
38263;DHT22;24054;50.128;19.730;2022-10-31T03:19:34;20.50;65.30
38263;DHT22;24054;50.128;19.730;2022-10-31T03:22:06;20.50;65.50
38263;DHT22;24054;50.128;19.730;2022-10-31T03:24:35;20.50;65.30
38263;DHT22;24054;50.128;19.730;2022-10-31T03:27:04;20.50;65.30
38263;DHT22;24054;50.128;19.730;2022-10-31T03:29:34;20.50;65.20
38263;DHT22;24054;50.128;19.730;2022-10-31T03:32:07;20.40;65.10
38263;DHT22;24054;50.128;19.730;2022-10-31T03:34:38;20.40;65.10
38263;DHT22;24054;50.128;19.730;2022-10-31T03:37:13;20.50;65.20
38263;DHT22;24054;50.128;19.730;2022-10-31T03:39:42;20.40;65.10
38263;DHT22;24054;50.128;19.730;2022-10-31T03:42:12;20.40;65.10
38263;DHT22;24054;50.128;19.730;2022-10-31T03:44:43;20.50;65.10
38263;DHT22;24054;50.128;19.730;2022-10-31T03:47:11;20.40;65.00
38263;DHT22;24054;50.128;19.730;2022-10-31T03:49:39;20.50;65.10
38263;DHT22;24054;50.128;19.730;2022-10-31T03:52:15;20.40;65.00
38263;DHT22;24054;50.128;19.730;2022-10-31T03:54:46;20.40;65.00
38263;DHT22;24054;50.128;19.730;2022-10-31T03:57:21;20.40;65.00
38263;DHT22;24054;50.128;19.730;2022-10-31T03:59:53;20.40;65.00
38263;DHT22;24054;50.128;19.730;2022-10-31T04:02:24;20.40;65.00
38263;DHT22;24054;50.128;19.730;2022-10-31T04:04:54;20.40;65.00
38263;DHT22;24054;50.128;19.730;2022-10-31T04:07:23;20.40;64.90
38263;DHT22;24054;50.128;19.730;2022-10-31T04:09:52;20.40;64.90
38263;DHT22;24054;50.128;19.730;2022-10-31T04:12:21;20.40;64.90
38263;DHT22;24054;50.128;19.730;2022-10-31T04:14:50;20.40;64.90
38263;DHT22;24054;50.128;19.730;2022-10-31T04:17:19;20.40;64.90
38263;DHT22;24054;50.128;19.730;2022-10-31T04:19:47;20.40;64.90
38263;DHT22;24054;50.128;19.730;2022-10-31T04:22:15;20.40;64.90
38263;DHT22;24054;50.128;19.730;2022-10-31T04:24:42;20.40;64.90
38263;DHT22;24054;50.128;19.730;2022-10-31T04:27:11;20.40;65.50
38263;DHT22;24054;50.128;19.730;2022-10-31T04:29:38;20.40;64.90
38263;DHT22;24054;50.128;19.730;2022-10-31T04:32:06;20.40;64.80
38263;DHT22;24054;50.128;19.730;2022-10-31T04:34:33;20.40;64.80
38263;DHT22;24054;50.128;19.730;2022-10-31T04:37:00;20.40;64.90
38263;DHT22;24054;50.128;19.730;2022-10-31T04:39:28;20.40;64.80
38263;DHT22;24054;50.128;19.730;2022-10-31T04:41:55;20.40;64.80
38263;DHT22;24054;50.128;19.730;2022-10-31T04:44:22;20.40;64.80
38263;DHT22;24054;50.128;19.730;2022-10-31T04:46:49;20.30;64.80
38263;DHT22;24054;50.128;19.730;2022-10-31T04:49:16;20.30;64.80
38263;DHT22;24054;50.128;19.730;2022-10-31T04:51:43;20.30;64.70
38263;DHT22;24054;50.128;19.730;2022-10-31T04:54:09;20.40;64.70
38263;DHT22;24054;50.128;19.730;2022-10-31T04:56:38;20.30;64.80
38263;DHT22;24054;50.128;19.730;2022-10-31T04:59:05;20.40;64.80
38263;DHT22;24054;50.128;19.730;2022-10-31T05:01:32;20.30;64.70
38263;DHT22;24054;50.128;19.730;2022-10-31T05:03:59;20.30;64.70
38263;DHT22;24054;50.128;19.730;2022-10-31T05:06:28;20.30;64.70
38263;DHT22;24054;50.128;19.730;2022-10-31T05:08:54;20.30;64.60
38263;DHT22;24054;50.128;19.730;2022-10-31T05:11:21;20.30;64.60
38263;DHT22;24054;50.128;19.730;2022-10-31T05:13:49;20.30;64.60
38263;DHT22;24054;50.128;19.730;2022-10-31T05:16:16;20.30;64.60
38263;DHT22;24054;50.128;19.730;2022-10-31T05:18:43;20.30;64.60
38263;DHT22;24054;50.128;19.730;2022-10-31T05:21:10;20.30;64.60
38263;DHT22;24054;50.128;19.730;2022-10-31T05:23:37;20.30;64.60
38263;DHT22;24054;50.128;19.730;2022-10-31T05:26:04;20.30;64.60
38263;DHT22;24054;50.128;19.730;2022-10-31T05:28:31;20.30;64.60
38263;DHT22;24054;50.128;19.730;2022-10-31T05:31:00;20.30;64.60
38263;DHT22;24054;50.128;19.730;2022-10-31T05:33:27;20.30;64.50
38263;DHT22;24054;50.128;19.730;2022-10-31T05:35:54;20.30;64.50
38263;DHT22;24054;50.128;19.730;2022-10-31T05:38:21;20.30;64.50
38263;DHT22;24054;50.128;19.730;2022-10-31T05:40:48;20.30;64.50
38263;DHT22;24054;50.128;19.730;2022-10-31T05:43:15;20.30;64.50
38263;DHT22;24054;50.128;19.730;2022-10-31T05:45:42;20.30;64.50
38263;DHT22;24054;50.128;19.730;2022-10-31T05:48:10;20.20;64.40
38263;DHT22;24054;50.128;19.730;2022-10-31T05:50:37;20.20;64.40
38263;DHT22;24054;50.128;19.730;2022-10-31T05:53:05;20.30;64.40
38263;DHT22;24054;50.128;19.730;2022-10-31T05:55:32;20.20;64.40
38263;DHT22;24054;50.128;19.730;2022-10-31T05:57:59;20.20;64.40
38263;DHT22;24054;50.128;19.730;2022-10-31T06:00:27;20.20;64.40
38263;DHT22;24054;50.128;19.730;2022-10-31T06:02:58;20.20;64.40
38263;DHT22;24054;50.128;19.730;2022-10-31T06:05:27;20.20;64.40
38263;DHT22;24054;50.128;19.730;2022-10-31T06:07:54;20.20;64.40
38263;DHT22;24054;50.128;19.730;2022-10-31T06:10:21;20.20;64.40
38263;DHT22;24054;50.128;19.730;2022-10-31T06:12:48;20.30;64.50
38263;DHT22;24054;50.128;19.730;2022-10-31T06:15:16;20.30;64.30
38263;DHT22;24054;50.128;19.730;2022-10-31T06:17:43;20.30;64.30
38263;DHT22;24054;50.128;19.730;2022-10-31T06:20:11;20.40;64.30
38263;DHT22;24054;50.128;19.730;2022-10-31T06:22:39;20.40;64.30
38263;DHT22;24054;50.128;19.730;2022-10-31T06:25:07;20.40;64.20
38263;DHT22;24054;50.128;19.730;2022-10-31T06:27:34;20.50;64.30
38263;DHT22;24054;50.128;19.730;2022-10-31T06:30:01;20.50;64.20
38263;DHT22;24054;50.128;19.730;2022-10-31T06:32:28;20.50;64.10
38263;DHT22;24054;50.128;19.730;2022-10-31T06:34:55;20.60;64.20
38263;DHT22;24054;50.128;19.730;2022-10-31T06:37:22;20.60;64.50
38263;DHT22;24054;50.128;19.730;2022-10-31T06:39:50;20.60;65.10
38263;DHT22;24054;50.128;19.730;2022-10-31T06:42:17;20.70;65.30
38263;DHT22;24054;50.128;19.730;2022-10-31T06:44:44;20.70;65.30
38263;DHT22;24054;50.128;19.730;2022-10-31T06:47:11;20.70;65.20
38263;DHT22;24054;50.128;19.730;2022-10-31T06:49:38;20.80;65.20
38263;DHT22;24054;50.128;19.730;2022-10-31T06:52:05;20.80;65.10
38263;DHT22;24054;50.128;19.730;2022-10-31T06:54:32;20.80;65.10
38263;DHT22;24054;50.128;19.730;2022-10-31T06:57:01;20.90;65.20
38263;DHT22;24054;50.128;19.730;2022-10-31T06:59:29;20.90;65.20
38263;DHT22;24054;50.128;19.730;2022-10-31T07:01:57;20.90;65.40
38263;DHT22;24054;50.128;19.730;2022-10-31T07:04:24;21.00;65.30
38263;DHT22;24054;50.128;19.730;2022-10-31T07:06:51;21.10;65.20
38263;DHT22;24054;50.128;19.730;2022-10-31T07:09:19;21.10;65.10
38263;DHT22;24054;50.128;19.730;2022-10-31T07:11:48;21.10;65.20
38263;DHT22;24054;50.128;19.730;2022-10-31T07:14:16;21.10;65.00
38263;DHT22;24054;50.128;19.730;2022-10-31T07:16:43;21.20;64.80
38263;DHT22;24054;50.128;19.730;2022-10-31T07:19:10;21.20;64.80
38263;DHT22;24054;50.128;19.730;2022-10-31T07:21:37;21.30;64.60
38263;DHT22;24054;50.128;19.730;2022-10-31T07:24:05;21.30;64.50
38263;DHT22;24054;50.128;19.730;2022-10-31T07:26:32;21.30;64.40
38263;DHT22;24054;50.128;19.730;2022-10-31T07:28:59;21.30;64.20
38263;DHT22;24054;50.128;19.730;2022-10-31T07:31:27;21.40;64.20
38263;DHT22;24054;50.128;19.730;2022-10-31T07:33:54;21.40;64.00
38263;DHT22;24054;50.128;19.730;2022-10-31T07:36:21;21.50;64.00
38263;DHT22;24054;50.128;19.730;2022-10-31T07:38:49;21.50;63.70
38263;DHT22;24054;50.128;19.730;2022-10-31T07:41:17;21.50;63.50
38263;DHT22;24054;50.128;19.730;2022-10-31T07:43:44;21.60;63.40
38263;DHT22;24054;50.128;19.730;2022-10-31T07:46:11;21.70;63.40
38263;DHT22;24054;50.128;19.730;2022-10-31T07:48:39;21.70;63.70
38263;DHT22;24054;50.128;19.730;2022-10-31T07:51:06;21.80;63.50
38263;DHT22;24054;50.128;19.730;2022-10-31T07:53:33;21.80;63.20
38263;DHT22;24054;50.128;19.730;2022-10-31T07:56:00;21.90;63.10
38263;DHT22;24054;50.128;19.730;2022-10-31T07:58:27;21.90;63.00
38263;DHT22;24054;50.128;19.730;2022-10-31T08:00:54;22.00;62.70
38263;DHT22;24054;50.128;19.730;2022-10-31T08:03:21;22.00;62.40
38263;DHT22;24054;50.128;19.730;2022-10-31T08:05:50;22.10;62.10
38263;DHT22;24054;50.128;19.730;2022-10-31T08:08:17;22.10;61.90
38263;DHT22;24054;50.128;19.730;2022-10-31T08:10:45;22.10;61.50
38263;DHT22;24054;50.128;19.730;2022-10-31T08:13:13;22.20;61.30
38263;DHT22;24054;50.128;19.730;2022-10-31T08:15:41;22.20;61.10
38263;DHT22;24054;50.128;19.730;2022-10-31T08:18:11;22.30;61.00
38263;DHT22;24054;50.128;19.730;2022-10-31T08:20:39;22.40;60.80
38263;DHT22;24054;50.128;19.730;2022-10-31T08:23:09;22.40;60.60
38263;DHT22;24054;50.128;19.730;2022-10-31T08:25:37;22.50;60.40
38263;DHT22;24054;50.128;19.730;2022-10-31T08:28:05;22.50;60.20
38263;DHT22;24054;50.128;19.730;2022-10-31T08:30:33;22.60;60.00
38263;DHT22;24054;50.128;19.730;2022-10-31T08:33:03;22.60;59.80
38263;DHT22;24054;50.128;19.730;2022-10-31T08:35:32;22.70;59.60
38263;DHT22;24054;50.128;19.730;2022-10-31T08:38:00;22.70;59.30
38263;DHT22;24054;50.128;19.730;2022-10-31T08:40:30;22.80;59.10
38263;DHT22;24054;50.128;19.730;2022-10-31T08:42:58;22.90;59.00
38263;DHT22;24054;50.128;19.730;2022-10-31T08:45:26;22.90;58.80
38263;DHT22;24054;50.128;19.730;2022-10-31T08:47:57;23.00;58.80
38263;DHT22;24054;50.128;19.730;2022-10-31T08:50:24;23.00;58.50
38263;DHT22;24054;50.128;19.730;2022-10-31T08:52:52;23.10;58.40
38263;DHT22;24054;50.128;19.730;2022-10-31T08:55:19;23.10;58.20
38263;DHT22;24054;50.128;19.730;2022-10-31T08:57:54;23.20;58.10
38263;DHT22;24054;50.128;19.730;2022-10-31T09:00:22;23.20;57.80
38263;DHT22;24054;50.128;19.730;2022-10-31T09:02:55;23.30;57.80
38263;DHT22;24054;50.128;19.730;2022-10-31T09:05:22;23.30;57.70
38263;DHT22;24054;50.128;19.730;2022-10-31T09:07:49;23.30;57.70
38263;DHT22;24054;50.128;19.730;2022-10-31T09:10:19;23.40;57.80
38263;DHT22;24054;50.128;19.730;2022-10-31T09:12:56;23.50;57.80
38263;DHT22;24054;50.128;19.730;2022-10-31T09:15:24;23.60;57.80
38263;DHT22;24054;50.128;19.730;2022-10-31T09:17:51;23.60;57.70
38263;DHT22;24054;50.128;19.730;2022-10-31T09:20:18;23.70;57.80
38263;DHT22;24054;50.128;19.730;2022-10-31T09:22:45;23.70;57.80
38263;DHT22;24054;50.128;19.730;2022-10-31T09:25:14;23.70;57.80
38263;DHT22;24054;50.128;19.730;2022-10-31T09:27:41;23.70;57.90
38263;DHT22;24054;50.128;19.730;2022-10-31T09:30:10;23.80;57.90
38263;DHT22;24054;50.128;19.730;2022-10-31T09:32:37;23.80;57.70
38263;DHT22;24054;50.128;19.730;2022-10-31T09:35:05;23.80;57.60
38263;DHT22;24054;50.128;19.730;2022-10-31T09:37:33;23.90;57.60
38263;DHT22;24054;50.128;19.730;2022-10-31T09:40:00;23.90;57.40
38263;DHT22;24054;50.128;19.730;2022-10-31T09:42:49;24.00;57.40
38263;DHT22;24054;50.128;19.730;2022-10-31T09:45:23;24.00;57.40
38263;DHT22;24054;50.128;19.730;2022-10-31T09:48:09;24.00;57.40
38263;DHT22;24054;50.128;19.730;2022-10-31T09:50:42;24.10;57.40
38263;DHT22;24054;50.128;19.730;2022-10-31T09:53:19;24.10;57.40
38263;DHT22;24054;50.128;19.730;2022-10-31T09:55:49;24.10;57.40
38263;DHT22;24054;50.128;19.730;2022-10-31T09:58:20;24.10;57.40
38263;DHT22;24054;50.128;19.730;2022-10-31T10:00:52;24.10;57.40
38263;DHT22;24054;50.128;19.730;2022-10-31T10:03:28;24.20;57.40
38263;DHT22;24054;50.128;19.730;2022-10-31T10:06:06;24.20;57.40
38263;DHT22;24054;50.128;19.730;2022-10-31T10:08:35;24.20;57.40
38263;DHT22;24054;50.128;19.730;2022-10-31T10:11:14;24.20;57.40
38263;DHT22;24054;50.128;19.730;2022-10-31T10:17:05;24.30;57.60
38263;DHT22;24054;50.128;19.730;2022-10-31T10:19:59;24.30;57.70
38263;DHT22;24054;50.128;19.730;2022-10-31T10:22:38;24.30;57.80
38263;DHT22;24054;50.128;19.730;2022-10-31T10:25:20;24.30;57.80
38263;DHT22;24054;50.128;19.730;2022-10-31T10:28:00;24.40;57.90
38263;DHT22;24054;50.128;19.730;2022-10-31T10:30:33;24.40;57.90
38263;DHT22;24054;50.128;19.730;2022-10-31T10:33:08;24.40;58.30
38263;DHT22;24054;50.128;19.730;2022-10-31T10:35:41;24.40;57.90
38263;DHT22;24054;50.128;19.730;2022-10-31T10:38:15;24.40;58.00
38263;DHT22;24054;50.128;19.730;2022-10-31T10:40:43;24.40;58.00
38263;DHT22;24054;50.128;19.730;2022-10-31T10:43:22;24.40;58.00
38263;DHT22;24054;50.128;19.730;2022-10-31T10:46:00;24.50;58.10
38263;DHT22;24054;50.128;19.730;2022-10-31T10:48:55;24.40;58.10
38263;DHT22;24054;50.128;19.730;2022-10-31T10:51:30;24.50;58.10
38263;DHT22;24054;50.128;19.730;2022-10-31T10:54:27;24.50;58.10
38263;DHT22;24054;50.128;19.730;2022-10-31T10:57:05;24.50;58.10
38263;DHT22;24054;50.128;19.730;2022-10-31T10:59:34;25.00;63.70
38263;DHT22;24054;50.128;19.730;2022-10-31T11:02:08;24.50;65.30
38263;DHT22;24054;50.128;19.730;2022-10-31T11:04:45;24.50;58.00
38263;DHT22;24054;50.128;19.730;2022-10-31T11:07:14;24.60;55.70
38263;DHT22;24054;50.128;19.730;2022-10-31T11:09:41;24.50;51.70
38263;DHT22;24054;50.128;19.730;2022-10-31T11:12:10;24.50;51.70
38263;DHT22;24054;50.128;19.730;2022-10-31T11:14:45;24.50;51.20
38263;DHT22;24054;50.128;19.730;2022-10-31T11:17:22;24.50;50.80
38263;DHT22;24054;50.128;19.730;2022-10-31T11:20:03;24.50;51.00
38263;DHT22;24054;50.128;19.730;2022-10-31T11:22:30;24.40;49.90
38263;DHT22;24054;50.128;19.730;2022-10-31T11:24:58;24.30;50.20
38263;DHT22;24054;50.128;19.730;2022-10-31T11:27:26;24.30;51.10
38263;DHT22;24054;50.128;19.730;2022-10-31T11:30:04;24.30;51.10
38263;DHT22;24054;50.128;19.730;2022-10-31T11:32:34;24.30;50.20
38263;DHT22;24054;50.128;19.730;2022-10-31T11:35:09;24.40;74.10
38263;DHT22;24054;50.128;19.730;2022-10-31T11:37:42;24.60;76.80
38263;DHT22;24054;50.128;19.730;2022-10-31T11:40:16;24.20;50.50
38263;DHT22;24054;50.128;19.730;2022-10-31T11:42:45;24.30;50.60
38263;DHT22;24054;50.128;19.730;2022-10-31T11:45:16;24.20;67.90
38263;DHT22;24054;50.128;19.730;2022-10-31T11:47:50;24.20;50.20
38263;DHT22;24054;50.128;19.730;2022-10-31T11:50:24;24.20;50.40
38263;DHT22;24054;50.128;19.730;2022-10-31T11:52:52;24.10;51.00
38263;DHT22;24054;50.128;19.730;2022-10-31T11:55:31;24.20;50.40
38263;DHT22;24054;50.128;19.730;2022-10-31T11:57:58;24.20;50.90
38263;DHT22;24054;50.128;19.730;2022-10-31T12:00:27;24.30;51.10
38263;DHT22;24054;50.128;19.730;2022-10-31T12:03:10;24.30;51.60
38263;DHT22;24054;50.128;19.730;2022-10-31T12:05:39;24.40;51.50
38263;DHT22;24054;50.128;19.730;2022-10-31T12:08:10;24.40;52.20
38263;DHT22;24054;50.128;19.730;2022-10-31T12:10:43;24.40;52.50
38263;DHT22;24054;50.128;19.730;2022-10-31T12:13:28;24.40;52.60
38263;DHT22;24054;50.128;19.730;2022-10-31T12:16:02;24.40;52.50
38263;DHT22;24054;50.128;19.730;2022-10-31T12:18:44;24.40;52.50
38263;DHT22;24054;50.128;19.730;2022-10-31T12:21:23;24.40;52.60
38263;DHT22;24054;50.128;19.730;2022-10-31T12:24:04;24.50;69.30
38263;DHT22;24054;50.128;19.730;2022-10-31T12:26:41;24.40;52.30
38263;DHT22;24054;50.128;19.730;2022-10-31T12:29:21;24.40;52.80
38263;DHT22;24054;50.128;19.730;2022-10-31T12:32:05;24.40;52.80
38263;DHT22;24054;50.128;19.730;2022-10-31T12:34:52;24.40;53.30
38263;DHT22;24054;50.128;19.730;2022-10-31T12:37:35;24.40;53.90
38263;DHT22;24054;50.128;19.730;2022-10-31T12:40:23;24.50;54.60
38263;DHT22;24054;50.128;19.730;2022-10-31T12:43:04;24.50;53.60
38263;DHT22;24054;50.128;19.730;2022-10-31T12:45:43;24.50;53.60
38263;DHT22;24054;50.128;19.730;2022-10-31T12:48:24;24.50;53.00
38263;DHT22;24054;50.128;19.730;2022-10-31T12:50:58;24.40;53.10
38263;DHT22;24054;50.128;19.730;2022-10-31T12:53:44;24.40;53.10
38263;DHT22;24054;50.128;19.730;2022-10-31T12:56:26;24.40;53.00
38263;DHT22;24054;50.128;19.730;2022-10-31T12:58:59;24.30;53.40
38263;DHT22;24054;50.128;19.730;2022-10-31T13:01:29;24.40;53.40
38263;DHT22;24054;50.128;19.730;2022-10-31T13:04:02;24.30;53.00
38263;DHT22;24054;50.128;19.730;2022-10-31T13:06:34;24.30;53.50
38263;DHT22;24054;50.128;19.730;2022-10-31T13:09:07;24.30;53.60
38263;DHT22;24054;50.128;19.730;2022-10-31T13:11:39;24.30;53.60
38263;DHT22;24054;50.128;19.730;2022-10-31T13:14:15;24.30;53.20
38263;DHT22;24054;50.128;19.730;2022-10-31T13:16:47;24.20;53.50
38263;DHT22;24054;50.128;19.730;2022-10-31T13:19:18;24.20;54.10
38263;DHT22;24054;50.128;19.730;2022-10-31T13:21:55;24.20;53.00
38263;DHT22;24054;50.128;19.730;2022-10-31T13:24:31;24.10;53.30
38263;DHT22;24054;50.128;19.730;2022-10-31T13:27:02;24.20;53.80
38263;DHT22;24054;50.128;19.730;2022-10-31T13:29:33;24.10;54.00
38263;DHT22;24054;50.128;19.730;2022-10-31T13:32:03;24.20;54.50
38263;DHT22;24054;50.128;19.730;2022-10-31T13:34:33;24.20;54.10
38263;DHT22;24054;50.128;19.730;2022-10-31T13:37:12;24.20;54.50
38263;DHT22;24054;50.128;19.730;2022-10-31T13:39:59;24.20;54.60
38263;DHT22;24054;50.128;19.730;2022-10-31T13:42:45;24.20;54.90
38263;DHT22;24054;50.128;19.730;2022-10-31T13:45:17;24.20;55.10
38263;DHT22;24054;50.128;19.730;2022-10-31T13:47:56;24.20;55.30
38263;DHT22;24054;50.128;19.730;2022-10-31T13:50:26;24.20;55.40
38263;DHT22;24054;50.128;19.730;2022-10-31T13:53:14;24.10;55.50
38263;DHT22;24054;50.128;19.730;2022-10-31T13:55:48;24.10;55.60
38263;DHT22;24054;50.128;19.730;2022-10-31T13:58:23;24.10;55.70
38263;DHT22;24054;50.128;19.730;2022-10-31T14:00:59;24.10;55.80
38263;DHT22;24054;50.128;19.730;2022-10-31T14:03:37;24.10;55.90
38263;DHT22;24054;50.128;19.730;2022-10-31T14:06:06;24.10;55.90
38263;DHT22;24054;50.128;19.730;2022-10-31T14:08:37;24.10;56.00
38263;DHT22;24054;50.128;19.730;2022-10-31T14:11:08;24.00;56.00
38263;DHT22;24054;50.128;19.730;2022-10-31T14:13:37;24.00;56.00
38263;DHT22;24054;50.128;19.730;2022-10-31T14:16:18;24.00;56.20
38263;DHT22;24054;50.128;19.730;2022-10-31T14:18:50;24.00;56.30
38263;DHT22;24054;50.128;19.730;2022-10-31T14:21:27;23.90;56.40
38263;DHT22;24054;50.128;19.730;2022-10-31T14:23:55;23.90;56.50
38263;DHT22;24054;50.128;19.730;2022-10-31T14:26:35;23.90;56.50
38263;DHT22;24054;50.128;19.730;2022-10-31T14:29:25;23.90;56.60
38263;DHT22;24054;50.128;19.730;2022-10-31T14:31:55;23.80;56.60
38263;DHT22;24054;50.128;19.730;2022-10-31T14:34:25;23.80;56.50
38263;DHT22;24054;50.128;19.730;2022-10-31T14:37:17;23.80;56.60
38263;DHT22;24054;50.128;19.730;2022-10-31T14:39:58;23.80;56.80
38263;DHT22;24054;50.128;19.730;2022-10-31T14:42:44;23.80;56.70
38263;DHT22;24054;50.128;19.730;2022-10-31T14:45:27;23.70;56.80
38263;DHT22;24054;50.128;19.730;2022-10-31T14:48:10;23.70;56.90
38263;DHT22;24054;50.128;19.730;2022-10-31T14:50:44;23.60;57.10
38263;DHT22;24054;50.128;19.730;2022-10-31T14:53:18;23.60;57.20
38263;DHT22;24054;50.128;19.730;2022-10-31T14:55:49;23.60;57.70
38263;DHT22;24054;50.128;19.730;2022-10-31T14:58:21;23.60;57.80
38263;DHT22;24054;50.128;19.730;2022-10-31T15:00:52;23.60;58.00
38263;DHT22;24054;50.128;19.730;2022-10-31T15:03:26;23.50;58.10
38263;DHT22;24054;50.128;19.730;2022-10-31T15:05:56;23.50;58.10
38263;DHT22;24054;50.128;19.730;2022-10-31T15:08:44;23.50;58.20
38263;DHT22;24054;50.128;19.730;2022-10-31T15:11:13;23.40;58.30
38263;DHT22;24054;50.128;19.730;2022-10-31T15:13:46;23.40;58.40
38263;DHT22;24054;50.128;19.730;2022-10-31T15:16:17;23.40;58.50
38263;DHT22;24054;50.128;19.730;2022-10-31T15:18:49;23.40;58.60
38263;DHT22;24054;50.128;19.730;2022-10-31T15:21:17;23.30;58.70
38263;DHT22;24054;50.128;19.730;2022-10-31T15:23:46;23.30;58.80
38263;DHT22;24054;50.128;19.730;2022-10-31T15:26:17;23.30;58.90
38263;DHT22;24054;50.128;19.730;2022-10-31T15:28:57;23.30;59.10
38263;DHT22;24054;50.128;19.730;2022-10-31T15:31:24;23.20;59.20
38263;DHT22;24054;50.128;19.730;2022-10-31T15:33:51;23.20;59.40
38263;DHT22;24054;50.128;19.730;2022-10-31T15:36:24;23.20;59.50
38263;DHT22;24054;50.128;19.730;2022-10-31T15:38:51;23.20;59.60
38263;DHT22;24054;50.128;19.730;2022-10-31T15:41:32;23.10;59.80
38263;DHT22;24054;50.128;19.730;2022-10-31T15:44:10;23.10;59.90
38263;DHT22;24054;50.128;19.730;2022-10-31T15:46:39;23.10;60.00